Aérodrome :
LOGIN :

S'inscrire | Disclaimer

   EN    FR    IT 

 










Légende :    VFR   VFR Marginal   IFR   IFR Intensif   IFR Très Intensif
Visi : 
Plafond : 
>= 8 km
>= 3000ft
5 à 8 km
1000 à 3000 ft
1500m à 5 km
500 à 1000 ft
800 à 1500m
200 à 500 ft
< 800m
< 200 ft
Symboles :   Orages  Brouillard  Fortes neiges  Fortes précipitations  Vent > 20 kt
SIGMETs :   Divers  Orages  Givrage  Turbulence  Onde Orograph.  Cendres Volcan.






- Altitude de l'aérodrome : 53 ft
- Code IATA : HAM


EDDH - Hamburg

DERNIER METAR :
  • 280820Z 27004KT 250V310 7000 -DZ FEW003 BKN005 BKN010 03/02 Q0995 TEMPO BKN004

METARs EXPIRÉS :
  • 280750Z 25004KT 6000 -RA FEW003 BKN005 02/02 Q0994 TEMPO 4000 BKN004
  • 280720Z 25004KT 220V280 6000 -RA SCT003 BKN005 02/02 Q0994 TEMPO 4000 BKN004
  • 280650Z 25005KT 220V280 5000 -SNDZ BR FEW003 BKN004 02/02 Q0994 TEMPO 4000 BKN005
  • 280620Z 23005KT 4000 -SNDZ BR FEW003 BKN004 02/02 Q0994 TEMPO 6000
  • 280550Z 24005KT 4800 -DZ BR FEW003 BKN004 02/01 Q0994 TEMPO 6000

TAF TAF EDDH
Valide du 28 à 06h jusqu'au 29 à 12h UTC


280500Z 2806/2912 24004KT 8000 BKN006
TEMPO 2806/2810 2500 -RASN OVC003
BECMG 2810/2812 SCT013 BKN020
PROB30
TEMPO 2812/2816 4500 -RA BKN008
BECMG 2818/2821 OVC006
TEMPO 2820/2909 2500 BR BKN003
BECMG 2906/2909 34005KT
BECMG 2909/2911 SCT012 BKN020



MET'MAP, la Météo Aéronautique d'un coup d'oeil ! - Copyright ORBIFLY Décembre 2007 - Disclaimer

ORBIFLY MET'MAP TEAM :

Programmation & Développement : Alexandra Zaïnal
Sur une idée originale de : Baudouin d'Aumeries
Assistance à la programmation : Marc-Olivier Méhu
Soutien technique & logistique : Manuel Goepfert

Contact : metmap@orbifly.com




SOURCES & CREDITS :

   NOAA